sensor_id;sensor_type;location;lat;lon;timestamp;pressure;altitude;pressure_sealevel;temperature;humidity
35910;BME280;22004;49.120;-0.200;2023-04-10T00:01:06;101575.16;;;12.72;64.08
35910;BME280;22004;49.120;-0.200;2023-04-10T00:03:31;101583.31;;;12.48;63.44
35910;BME280;22004;49.120;-0.200;2023-04-10T00:05:58;101588.66;;;12.64;64.73
35910;BME280;22004;49.120;-0.200;2023-04-10T00:08:23;101589.56;;;12.40;64.96
35910;BME280;22004;49.120;-0.200;2023-04-10T00:10:49;101588.22;;;12.28;65.42
35910;BME280;22004;49.120;-0.200;2023-04-10T00:13:15;101585.78;;;11.85;64.34
35910;BME280;22004;49.120;-0.200;2023-04-10T00:15:41;101583.72;;;12.28;64.39
35910;BME280;22004;49.120;-0.200;2023-04-10T00:18:06;101586.88;;;12.40;63.48
35910;BME280;22004;49.120;-0.200;2023-04-10T00:20:32;101575.91;;;12.50;63.00
35910;BME280;22004;49.120;-0.200;2023-04-10T00:22:57;101580.16;;;12.36;65.05
35910;BME280;22004;49.120;-0.200;2023-04-10T00:25:22;101576.28;;;12.30;63.32
35910;BME280;22004;49.120;-0.200;2023-04-10T00:27:48;101575.03;;;12.65;64.28
35910;BME280;22004;49.120;-0.200;2023-04-10T00:30:13;101575.66;;;12.76;64.16
35910;BME280;22004;49.120;-0.200;2023-04-10T00:32:39;101571.06;;;12.84;63.74
35910;BME280;22004;49.120;-0.200;2023-04-10T00:35:05;101572.47;;;12.72;61.77
35910;BME280;22004;49.120;-0.200;2023-04-10T00:37:31;101567.47;;;12.53;64.69
35910;BME280;22004;49.120;-0.200;2023-04-10T00:39:56;101564.03;;;12.75;63.99
35910;BME280;22004;49.120;-0.200;2023-04-10T00:42:21;101568.72;;;12.81;63.73
35910;BME280;22004;49.120;-0.200;2023-04-10T00:44:47;101574.09;;;12.81;64.00
35910;BME280;22004;49.120;-0.200;2023-04-10T00:47:13;101567.34;;;12.85;63.41
35910;BME280;22004;49.120;-0.200;2023-04-10T00:49:39;101567.38;;;12.30;62.95
35910;BME280;22004;49.120;-0.200;2023-04-10T00:52:06;101565.84;;;12.35;64.49
35910;BME280;22004;49.120;-0.200;2023-04-10T00:54:32;101561.56;;;12.65;64.09
35910;BME280;22004;49.120;-0.200;2023-04-10T00:56:58;101547.09;;;12.58;64.16
35910;BME280;22004;49.120;-0.200;2023-04-10T00:59:24;101553.88;;;12.85;63.51
35910;BME280;22004;49.120;-0.200;2023-04-10T01:01:49;101547.44;;;12.55;62.52
35910;BME280;22004;49.120;-0.200;2023-04-10T01:04:15;101538.88;;;12.91;63.23
35910;BME280;22004;49.120;-0.200;2023-04-10T01:12:03;101520.78;;;12.21;64.12
35910;BME280;22004;49.120;-0.200;2023-04-10T01:14:51;101521.16;;;12.57;64.20
35910;BME280;22004;49.120;-0.200;2023-04-10T01:17:49;101515.00;;;12.40;63.87
35910;BME280;22004;49.120;-0.200;2023-04-10T01:20:24;101517.81;;;11.75;64.45
35910;BME280;22004;49.120;-0.200;2023-04-10T01:25:40;101506.38;;;11.73;64.46
35910;BME280;22004;49.120;-0.200;2023-04-10T01:31:00;101504.00;;;11.78;65.77
35910;BME280;22004;49.120;-0.200;2023-04-10T01:33:31;101492.41;;;11.78;64.76
35910;BME280;22004;49.120;-0.200;2023-04-10T01:36:02;101486.09;;;12.34;64.95
35910;BME280;22004;49.120;-0.200;2023-04-10T01:38:29;101486.81;;;12.12;64.01
35910;BME280;22004;49.120;-0.200;2023-04-10T01:40:56;101487.19;;;12.09;64.61
35910;BME280;22004;49.120;-0.200;2023-04-10T01:43:24;101481.94;;;12.15;64.84
35910;BME280;22004;49.120;-0.200;2023-04-10T01:45:51;101478.03;;;12.26;65.02
35910;BME280;22004;49.120;-0.200;2023-04-10T01:48:17;101471.31;;;12.22;64.86
35910;BME280;22004;49.120;-0.200;2023-04-10T01:50:46;101479.47;;;11.81;65.55
35910;BME280;22004;49.120;-0.200;2023-04-10T01:53:13;101463.03;;;12.32;64.93
35910;BME280;22004;49.120;-0.200;2023-04-10T01:55:40;101468.34;;;12.01;64.81
35910;BME280;22004;49.120;-0.200;2023-04-10T01:58:05;101456.38;;;12.20;65.37
35910;BME280;22004;49.120;-0.200;2023-04-10T02:00:39;101457.97;;;12.37;65.47
35910;BME280;22004;49.120;-0.200;2023-04-10T02:03:06;101463.88;;;12.32;64.92
35910;BME280;22004;49.120;-0.200;2023-04-10T02:05:53;101457.00;;;12.30;64.84
35910;BME280;22004;49.120;-0.200;2023-04-10T02:08:33;101466.25;;;12.27;64.39
35910;BME280;22004;49.120;-0.200;2023-04-10T02:13:34;101452.91;;;11.95;66.53
35910;BME280;22004;49.120;-0.200;2023-04-10T02:16:03;101448.03;;;11.90;64.69
35910;BME280;22004;49.120;-0.200;2023-04-10T02:18:32;101441.75;;;12.06;64.84
35910;BME280;22004;49.120;-0.200;2023-04-10T02:20:58;101438.84;;;11.35;66.42
35910;BME280;22004;49.120;-0.200;2023-04-10T02:23:25;101433.44;;;11.44;67.67
35910;BME280;22004;49.120;-0.200;2023-04-10T02:25:50;101428.84;;;11.77;66.53
35910;BME280;22004;49.120;-0.200;2023-04-10T02:28:16;101426.13;;;12.09;64.95
35910;BME280;22004;49.120;-0.200;2023-04-10T02:30:41;101426.50;;;12.37;65.07
35910;BME280;22004;49.120;-0.200;2023-04-10T02:33:06;101427.31;;;12.38;64.50
35910;BME280;22004;49.120;-0.200;2023-04-10T02:35:32;101420.97;;;12.31;65.03
35910;BME280;22004;49.120;-0.200;2023-04-10T02:37:58;101416.44;;;12.23;65.16
35910;BME280;22004;49.120;-0.200;2023-04-10T02:40:23;101418.78;;;11.87;66.07
35910;BME280;22004;49.120;-0.200;2023-04-10T02:42:49;101420.75;;;12.09;65.71
35910;BME280;22004;49.120;-0.200;2023-04-10T02:45:14;101411.66;;;12.02;65.85
35910;BME280;22004;49.120;-0.200;2023-04-10T02:47:39;101406.59;;;12.07;64.31
35910;BME280;22004;49.120;-0.200;2023-04-10T02:50:05;101405.69;;;12.23;65.35
35910;BME280;22004;49.120;-0.200;2023-04-10T02:52:31;101408.16;;;12.33;64.88
35910;BME280;22004;49.120;-0.200;2023-04-10T02:54:56;101404.19;;;11.65;65.50
35910;BME280;22004;49.120;-0.200;2023-04-10T02:57:21;101404.31;;;11.88;65.98
35910;BME280;22004;49.120;-0.200;2023-04-10T02:59:50;101407.38;;;11.85;64.89
35910;BME280;22004;49.120;-0.200;2023-04-10T03:02:16;101401.78;;;11.86;65.37
35910;BME280;22004;49.120;-0.200;2023-04-10T03:04:41;101392.97;;;11.45;66.05
35910;BME280;22004;49.120;-0.200;2023-04-10T03:07:07;101388.63;;;11.11;67.88
35910;BME280;22004;49.120;-0.200;2023-04-10T03:09:33;101385.91;;;11.44;67.16
35910;BME280;22004;49.120;-0.200;2023-04-10T03:11:58;101383.63;;;11.80;66.82
35910;BME280;22004;49.120;-0.200;2023-04-10T03:14:23;101384.81;;;11.86;66.66
35910;BME280;22004;49.120;-0.200;2023-04-10T03:16:49;101380.19;;;12.11;65.24
35910;BME280;22004;49.120;-0.200;2023-04-10T03:19:14;101368.75;;;12.40;64.96
35910;BME280;22004;49.120;-0.200;2023-04-10T03:21:40;101371.47;;;12.40;64.81
35910;BME280;22004;49.120;-0.200;2023-04-10T03:24:06;101373.66;;;12.36;65.21
35910;BME280;22004;49.120;-0.200;2023-04-10T03:26:31;101376.81;;;12.48;64.77
35910;BME280;22004;49.120;-0.200;2023-04-10T03:28:57;101379.22;;;12.35;65.49
35910;BME280;22004;49.120;-0.200;2023-04-10T03:31:22;101383.78;;;12.34;65.53
35910;BME280;22004;49.120;-0.200;2023-04-10T03:33:48;101382.56;;;12.37;65.31
35910;BME280;22004;49.120;-0.200;2023-04-10T03:36:13;101380.16;;;12.50;64.55
35910;BME280;22004;49.120;-0.200;2023-04-10T03:38:39;101388.19;;;11.72;65.65
35910;BME280;22004;49.120;-0.200;2023-04-10T03:41:04;101387.22;;;11.64;66.68
35910;BME280;22004;49.120;-0.200;2023-04-10T03:43:30;101391.44;;;11.18;67.47
35910;BME280;22004;49.120;-0.200;2023-04-10T03:45:55;101390.78;;;11.16;68.25
35910;BME280;22004;49.120;-0.200;2023-04-10T03:48:21;101384.56;;;11.40;67.37
35910;BME280;22004;49.120;-0.200;2023-04-10T03:50:46;101383.56;;;11.41;67.69
35910;BME280;22004;49.120;-0.200;2023-04-10T03:53:12;101383.38;;;11.18;68.56
35910;BME280;22004;49.120;-0.200;2023-04-10T03:55:37;101374.41;;;11.83;66.17
35910;BME280;22004;49.120;-0.200;2023-04-10T03:58:03;101377.69;;;12.01;66.08
35910;BME280;22004;49.120;-0.200;2023-04-10T04:00:31;101375.97;;;11.53;67.49
35910;BME280;22004;49.120;-0.200;2023-04-10T04:02:56;101387.28;;;12.04;66.21
35910;BME280;22004;49.120;-0.200;2023-04-10T04:05:23;101390.66;;;11.98;65.97
35910;BME280;22004;49.120;-0.200;2023-04-10T04:07:48;101387.34;;;11.79;66.76
35910;BME280;22004;49.120;-0.200;2023-04-10T04:10:14;101393.09;;;11.60;67.48
35910;BME280;22004;49.120;-0.200;2023-04-10T04:12:39;101387.34;;;11.71;67.01
35910;BME280;22004;49.120;-0.200;2023-04-10T04:15:05;101394.59;;;11.71;67.42
35910;BME280;22004;49.120;-0.200;2023-04-10T04:17:31;101390.09;;;11.38;69.03
35910;BME280;22004;49.120;-0.200;2023-04-10T04:19:56;101389.63;;;11.35;67.47
35910;BME280;22004;49.120;-0.200;2023-04-10T04:22:21;101392.81;;;11.30;68.54
35910;BME280;22004;49.120;-0.200;2023-04-10T04:24:47;101369.59;;;11.37;68.62
35910;BME280;22004;49.120;-0.200;2023-04-10T04:27:12;101369.56;;;11.62;68.11
35910;BME280;22004;49.120;-0.200;2023-04-10T04:29:37;101356.19;;;11.13;68.61
35910;BME280;22004;49.120;-0.200;2023-04-10T04:32:03;101366.28;;;11.19;69.01
35910;BME280;22004;49.120;-0.200;2023-04-10T04:34:28;101363.47;;;11.76;67.65
35910;BME280;22004;49.120;-0.200;2023-04-10T04:36:54;101365.50;;;11.74;67.95
35910;BME280;22004;49.120;-0.200;2023-04-10T04:39:19;101358.13;;;11.60;67.94
35910;BME280;22004;49.120;-0.200;2023-04-10T04:41:47;101362.19;;;11.56;68.19
35910;BME280;22004;49.120;-0.200;2023-04-10T04:44:12;101386.91;;;12.15;66.51
35910;BME280;22004;49.120;-0.200;2023-04-10T04:46:37;101380.88;;;12.05;66.93
35910;BME280;22004;49.120;-0.200;2023-04-10T04:49:03;101381.84;;;12.12;66.57
35910;BME280;22004;49.120;-0.200;2023-04-10T04:51:28;101387.31;;;11.96;67.16
35910;BME280;22004;49.120;-0.200;2023-04-10T04:53:53;101377.81;;;11.60;68.27
35910;BME280;22004;49.120;-0.200;2023-04-10T04:56:19;101390.75;;;11.65;67.83
35910;BME280;22004;49.120;-0.200;2023-04-10T04:58:44;101386.00;;;11.83;67.01
35910;BME280;22004;49.120;-0.200;2023-04-10T05:01:10;101390.97;;;11.15;69.80
35910;BME280;22004;49.120;-0.200;2023-04-10T05:03:35;101388.50;;;11.77;67.95
35910;BME280;22004;49.120;-0.200;2023-04-10T05:06:00;101389.59;;;11.51;68.29
35910;BME280;22004;49.120;-0.200;2023-04-10T05:08:26;101377.94;;;11.75;67.90
35910;BME280;22004;49.120;-0.200;2023-04-10T05:10:51;101384.09;;;12.00;67.23
35910;BME280;22004;49.120;-0.200;2023-04-10T05:13:16;101387.94;;;12.06;66.48
35910;BME280;22004;49.120;-0.200;2023-04-10T05:15:45;101392.91;;;11.61;67.37
35910;BME280;22004;49.120;-0.200;2023-04-10T05:18:10;101390.44;;;12.07;66.43
35910;BME280;22004;49.120;-0.200;2023-04-10T05:20:37;101387.63;;;12.40;65.27
35910;BME280;22004;49.120;-0.200;2023-04-10T05:23:03;101392.31;;;12.38;64.37
35910;BME280;22004;49.120;-0.200;2023-04-10T05:25:28;101386.53;;;11.62;66.70
35910;BME280;22004;49.120;-0.200;2023-04-10T05:27:54;101387.31;;;12.35;65.39
35910;BME280;22004;49.120;-0.200;2023-04-10T05:30:19;101389.00;;;12.28;65.60
35910;BME280;22004;49.120;-0.200;2023-04-10T05:32:45;101391.84;;;12.65;64.47
35910;BME280;22004;49.120;-0.200;2023-04-10T05:35:10;101388.22;;;12.50;65.30
35910;BME280;22004;49.120;-0.200;2023-04-10T05:37:36;101398.47;;;12.55;64.37
35910;BME280;22004;49.120;-0.200;2023-04-10T05:40:01;101398.41;;;12.63;64.89
35910;BME280;22004;49.120;-0.200;2023-04-10T05:42:27;101391.22;;;12.55;64.64
35910;BME280;22004;49.120;-0.200;2023-04-10T05:44:52;101386.03;;;12.77;64.00
35910;BME280;22004;49.120;-0.200;2023-04-10T05:47:18;101386.19;;;12.52;64.83
35910;BME280;22004;49.120;-0.200;2023-04-10T05:49:43;101384.53;;;12.43;64.48
35910;BME280;22004;49.120;-0.200;2023-04-10T05:52:08;101382.75;;;12.04;65.43
35910;BME280;22004;49.120;-0.200;2023-04-10T05:54:34;101374.66;;;12.66;64.09
35910;BME280;22004;49.120;-0.200;2023-04-10T05:56:59;101392.41;;;12.22;65.05
35910;BME280;22004;49.120;-0.200;2023-04-10T05:59:26;101391.16;;;12.32;65.24
35910;BME280;22004;49.120;-0.200;2023-04-10T06:01:51;101382.19;;;12.48;64.46
35910;BME280;22004;49.120;-0.200;2023-04-10T06:04:16;101390.91;;;12.19;65.03
35910;BME280;22004;49.120;-0.200;2023-04-10T06:06:42;101395.50;;;12.41;65.25
35910;BME280;22004;49.120;-0.200;2023-04-10T06:09:07;101398.88;;;12.44;65.57
35910;BME280;22004;49.120;-0.200;2023-04-10T06:11:32;101407.78;;;12.44;64.94
35910;BME280;22004;49.120;-0.200;2023-04-10T06:13:58;101408.44;;;12.15;65.68
35910;BME280;22004;49.120;-0.200;2023-04-10T06:16:23;101405.25;;;12.42;65.17
35910;BME280;22004;49.120;-0.200;2023-04-10T06:18:48;101392.63;;;12.12;66.35
35910;BME280;22004;49.120;-0.200;2023-04-10T06:21:16;101387.13;;;12.36;65.94
35910;BME280;22004;49.120;-0.200;2023-04-10T06:23:42;101391.72;;;12.59;65.26
35910;BME280;22004;49.120;-0.200;2023-04-10T06:26:07;101388.53;;;12.55;64.93
35910;BME280;22004;49.120;-0.200;2023-04-10T06:28:33;101391.22;;;12.55;64.37
35910;BME280;22004;49.120;-0.200;2023-04-10T06:30:59;101384.13;;;12.31;64.52
35910;BME280;22004;49.120;-0.200;2023-04-10T06:33:27;101383.56;;;12.44;64.83
35910;BME280;22004;49.120;-0.200;2023-04-10T06:35:52;101381.06;;;12.65;64.41
35910;BME280;22004;49.120;-0.200;2023-04-10T06:38:18;101385.63;;;12.34;65.00
35910;BME280;22004;49.120;-0.200;2023-04-10T06:40:43;101372.81;;;12.36;65.16
35910;BME280;22004;49.120;-0.200;2023-04-10T06:43:08;101365.28;;;12.31;64.19
35910;BME280;22004;49.120;-0.200;2023-04-10T06:45:34;101375.53;;;12.28;65.53
35910;BME280;22004;49.120;-0.200;2023-04-10T06:47:59;101365.97;;;11.94;65.14
35910;BME280;22004;49.120;-0.200;2023-04-10T06:50:25;101375.41;;;11.90;66.37
35910;BME280;22004;49.120;-0.200;2023-04-10T06:52:50;101372.84;;;12.28;65.65
35910;BME280;22004;49.120;-0.200;2023-04-10T06:55:17;101361.88;;;12.06;66.19
35910;BME280;22004;49.120;-0.200;2023-04-10T06:57:42;101372.97;;;12.03;65.52
35910;BME280;22004;49.120;-0.200;2023-04-10T07:00:08;101367.53;;;12.20;65.13
35910;BME280;22004;49.120;-0.200;2023-04-10T07:02:34;101365.88;;;12.41;64.91
35910;BME280;22004;49.120;-0.200;2023-04-10T07:04:59;101364.06;;;12.03;66.20
35910;BME280;22004;49.120;-0.200;2023-04-10T07:07:24;101366.19;;;12.15;65.80
35910;BME280;22004;49.120;-0.200;2023-04-10T07:09:50;101365.03;;;12.41;65.89
35910;BME280;22004;49.120;-0.200;2023-04-10T07:12:16;101374.41;;;12.22;65.73
35910;BME280;22004;49.120;-0.200;2023-04-10T07:14:41;101374.34;;;12.38;65.39
35910;BME280;22004;49.120;-0.200;2023-04-10T07:17:07;101365.84;;;12.19;65.81
35910;BME280;22004;49.120;-0.200;2023-04-10T07:19:32;101352.63;;;12.09;66.69
35910;BME280;22004;49.120;-0.200;2023-04-10T07:21:58;101363.28;;;11.94;66.39
35910;BME280;22004;49.120;-0.200;2023-04-10T07:24:24;101370.13;;;12.05;66.67
35910;BME280;22004;49.120;-0.200;2023-04-10T07:26:50;101362.25;;;12.34;66.44
35910;BME280;22004;49.120;-0.200;2023-04-10T07:29:16;101361.00;;;12.45;65.72
35910;BME280;22004;49.120;-0.200;2023-04-10T07:31:41;101359.09;;;12.54;65.50
35910;BME280;22004;49.120;-0.200;2023-04-10T07:34:06;101350.78;;;12.32;66.84
35910;BME280;22004;49.120;-0.200;2023-04-10T07:36:32;101344.56;;;12.32;67.15
35910;BME280;22004;49.120;-0.200;2023-04-10T07:38:58;101353.56;;;12.47;65.96
35910;BME280;22004;49.120;-0.200;2023-04-10T07:41:23;101361.22;;;12.35;67.00
35910;BME280;22004;49.120;-0.200;2023-04-10T07:43:49;101342.84;;;12.62;65.72
35910;BME280;22004;49.120;-0.200;2023-04-10T07:46:15;101344.84;;;12.68;66.10
35910;BME280;22004;49.120;-0.200;2023-04-10T07:48:40;101338.97;;;12.64;66.40
35910;BME280;22004;49.120;-0.200;2023-04-10T07:51:06;101346.16;;;12.49;67.74
35910;BME280;22004;49.120;-0.200;2023-04-10T07:53:34;101353.44;;;12.40;67.42
35910;BME280;22004;49.120;-0.200;2023-04-10T07:56:00;101350.44;;;12.35;68.01
35910;BME280;22004;49.120;-0.200;2023-04-10T07:58:25;101353.44;;;12.40;68.25
35910;BME280;22004;49.120;-0.200;2023-04-10T08:00:51;101349.19;;;12.46;68.01
35910;BME280;22004;49.120;-0.200;2023-04-10T08:03:16;101346.81;;;12.51;68.11
35910;BME280;22004;49.120;-0.200;2023-04-10T08:05:41;101345.94;;;12.59;67.75
35910;BME280;22004;49.120;-0.200;2023-04-10T08:08:07;101345.09;;;12.58;69.03
35910;BME280;22004;49.120;-0.200;2023-04-10T08:10:35;101338.22;;;12.48;69.49
35910;BME280;22004;49.120;-0.200;2023-04-10T08:13:01;101331.06;;;12.63;68.80
35910;BME280;22004;49.120;-0.200;2023-04-10T08:15:27;101332.81;;;12.79;68.86
35910;BME280;22004;49.120;-0.200;2023-04-10T08:17:52;101341.44;;;12.74;67.89
35910;BME280;22004;49.120;-0.200;2023-04-10T08:20:17;101337.97;;;12.88;68.10
35910;BME280;22004;49.120;-0.200;2023-04-10T08:22:43;101337.53;;;12.77;69.63
35910;BME280;22004;49.120;-0.200;2023-04-10T08:25:08;101334.19;;;12.75;70.78
35910;BME280;22004;49.120;-0.200;2023-04-10T08:27:34;101323.31;;;12.68;69.64
35910;BME280;22004;49.120;-0.200;2023-04-10T08:29:59;101325.91;;;12.76;69.63
35910;BME280;22004;49.120;-0.200;2023-04-10T08:32:25;101334.00;;;12.76;70.21
35910;BME280;22004;49.120;-0.200;2023-04-10T08:34:50;101326.41;;;12.80;70.95
35910;BME280;22004;49.120;-0.200;2023-04-10T08:37:16;101319.97;;;12.81;72.02
35910;BME280;22004;49.120;-0.200;2023-04-10T08:39:41;101334.53;;;12.94;71.76
35910;BME280;22004;49.120;-0.200;2023-04-10T08:42:07;101328.16;;;13.10;70.73
35910;BME280;22004;49.120;-0.200;2023-04-10T08:44:32;101325.38;;;13.18;70.71
35910;BME280;22004;49.120;-0.200;2023-04-10T08:47:01;101318.34;;;13.47;71.15
35910;BME280;22004;49.120;-0.200;2023-04-10T08:52:15;101322.28;;;13.59;71.45
35910;BME280;22004;49.120;-0.200;2023-04-10T08:54:46;101330.84;;;13.48;71.17
35910;BME280;22004;49.120;-0.200;2023-04-10T08:57:14;101332.13;;;13.52;71.69
35910;BME280;22004;49.120;-0.200;2023-04-10T08:59:49;101328.88;;;13.57;71.75
35910;BME280;22004;49.120;-0.200;2023-04-10T09:02:18;101322.56;;;13.50;71.13
35910;BME280;22004;49.120;-0.200;2023-04-10T09:04:49;101324.41;;;13.34;72.05
35910;BME280;22004;49.120;-0.200;2023-04-10T09:07:15;101326.06;;;13.35;73.42
35910;BME280;22004;49.120;-0.200;2023-04-10T09:09:41;101327.00;;;13.42;73.44
35910;BME280;22004;49.120;-0.200;2023-04-10T09:12:06;101329.63;;;13.51;72.70
35910;BME280;22004;49.120;-0.200;2023-04-10T09:14:33;101326.28;;;13.49;73.87
35910;BME280;22004;49.120;-0.200;2023-04-10T09:17:19;101334.81;;;13.37;76.28
35910;BME280;22004;49.120;-0.200;2023-04-10T09:19:50;101324.56;;;13.18;78.03
35910;BME280;22004;49.120;-0.200;2023-04-10T09:22:16;101328.31;;;12.94;76.12
35910;BME280;22004;49.120;-0.200;2023-04-10T09:24:44;101325.03;;;12.84;78.64
35910;BME280;22004;49.120;-0.200;2023-04-10T09:27:09;101323.81;;;12.86;78.80
35910;BME280;22004;49.120;-0.200;2023-04-10T09:29:46;101326.22;;;12.81;80.05
35910;BME280;22004;49.120;-0.200;2023-04-10T09:35:06;101332.28;;;12.83;80.54
35910;BME280;22004;49.120;-0.200;2023-04-10T09:37:36;101322.13;;;12.85;80.73
35910;BME280;22004;49.120;-0.200;2023-04-10T09:40:02;101329.97;;;12.95;81.08
35910;BME280;22004;49.120;-0.200;2023-04-10T09:42:33;101334.34;;;12.96;80.94
35910;BME280;22004;49.120;-0.200;2023-04-10T09:44:59;101318.09;;;13.04;78.98
35910;BME280;22004;49.120;-0.200;2023-04-10T09:47:26;101322.50;;;12.82;81.28
35910;BME280;22004;49.120;-0.200;2023-04-10T09:49:56;101328.75;;;12.98;80.57
35910;BME280;22004;49.120;-0.200;2023-04-10T09:54:53;101317.81;;;12.99;81.15
35910;BME280;22004;49.120;-0.200;2023-04-10T09:57:20;101310.13;;;13.11;81.33
35910;BME280;22004;49.120;-0.200;2023-04-10T09:59:54;101312.75;;;13.19;79.97
35910;BME280;22004;49.120;-0.200;2023-04-10T10:02:21;101310.44;;;13.31;79.22
35910;BME280;22004;49.120;-0.200;2023-04-10T10:04:48;101305.06;;;13.45;78.71
35910;BME280;22004;49.120;-0.200;2023-04-10T10:07:16;101302.94;;;13.56;79.08
35910;BME280;22004;49.120;-0.200;2023-04-10T10:09:43;101310.53;;;13.67;78.75
35910;BME280;22004;49.120;-0.200;2023-04-10T10:12:11;101309.28;;;13.63;78.97
35910;BME280;22004;49.120;-0.200;2023-04-10T10:15:06;101298.34;;;13.71;78.43
35910;BME280;22004;49.120;-0.200;2023-04-10T10:17:38;101306.63;;;13.84;79.24
35910;BME280;22004;49.120;-0.200;2023-04-10T10:20:08;101296.47;;;13.86;78.33
35910;BME280;22004;49.120;-0.200;2023-04-10T10:22:36;101305.22;;;13.88;77.47
35910;BME280;22004;49.120;-0.200;2023-04-10T10:25:02;101300.13;;;13.79;78.27
35910;BME280;22004;49.120;-0.200;2023-04-10T10:27:30;101288.84;;;13.90;78.50
35910;BME280;22004;49.120;-0.200;2023-04-10T10:29:58;101293.13;;;13.99;78.15
35910;BME280;22004;49.120;-0.200;2023-04-10T10:32:24;101300.50;;;14.12;78.70
35910;BME280;22004;49.120;-0.200;2023-04-10T10:34:51;101291.34;;;13.91;77.31
35910;BME280;22004;49.120;-0.200;2023-04-10T10:37:18;101288.34;;;14.01;78.22
35910;BME280;22004;49.120;-0.200;2023-04-10T10:45:45;101294.63;;;14.23;77.82
35910;BME280;22004;49.120;-0.200;2023-04-10T10:48:12;101283.47;;;14.11;78.50
35910;BME280;22004;49.120;-0.200;2023-04-10T10:53:30;101272.84;;;14.25;77.90
35910;BME280;22004;49.120;-0.200;2023-04-10T10:55:56;101275.22;;;14.34;78.35
35910;BME280;22004;49.120;-0.200;2023-04-10T10:58:54;101268.84;;;14.42;77.01
35910;BME280;22004;49.120;-0.200;2023-04-10T11:01:21;101261.59;;;15.20;75.85
35910;BME280;22004;49.120;-0.200;2023-04-10T11:03:47;101269.09;;;15.52;72.82
35910;BME280;22004;49.120;-0.200;2023-04-10T11:06:16;101274.75;;;15.23;74.51
35910;BME280;22004;49.120;-0.200;2023-04-10T11:08:44;101270.56;;;15.20;73.65
35910;BME280;22004;49.120;-0.200;2023-04-10T11:11:12;101267.88;;;14.71;75.25
35910;BME280;22004;49.120;-0.200;2023-04-10T11:13:41;101260.94;;;14.83;74.35
35910;BME280;22004;49.120;-0.200;2023-04-10T11:16:08;101256.16;;;14.85;75.32
35910;BME280;22004;49.120;-0.200;2023-04-10T11:21:12;101261.03;;;14.68;77.36
35910;BME280;22004;49.120;-0.200;2023-04-10T11:29:02;101254.03;;;14.53;77.00
35910;BME280;22004;49.120;-0.200;2023-04-10T11:31:29;101251.59;;;14.58;77.57
35910;BME280;22004;49.120;-0.200;2023-04-10T11:36:23;101255.63;;;14.47;78.06
35910;BME280;22004;49.120;-0.200;2023-04-10T11:39:03;101253.84;;;14.54;76.92
35910;BME280;22004;49.120;-0.200;2023-04-10T11:41:40;101261.41;;;14.44;78.31
35910;BME280;22004;49.120;-0.200;2023-04-10T11:44:08;101258.81;;;14.36;79.85
35910;BME280;22004;49.120;-0.200;2023-04-10T11:46:39;101251.03;;;14.26;81.11
35910;BME280;22004;49.120;-0.200;2023-04-10T11:49:06;101250.97;;;14.19;80.82
35910;BME280;22004;49.120;-0.200;2023-04-10T11:51:32;101254.97;;;14.23;80.56
35910;BME280;22004;49.120;-0.200;2023-04-10T11:54:13;101247.38;;;14.34;80.50
35910;BME280;22004;49.120;-0.200;2023-04-10T11:56:41;101251.16;;;14.39;80.90
35910;BME280;22004;49.120;-0.200;2023-04-10T11:59:07;101242.56;;;14.29;81.36
35910;BME280;22004;49.120;-0.200;2023-04-10T12:01:40;101246.59;;;14.18;81.24
35910;BME280;22004;49.120;-0.200;2023-04-10T12:04:19;101246.50;;;14.12;83.61
35910;BME280;22004;49.120;-0.200;2023-04-10T12:06:50;101234.63;;;14.06;82.15
35910;BME280;22004;49.120;-0.200;2023-04-10T12:09:17;101240.09;;;14.13;82.60
35910;BME280;22004;49.120;-0.200;2023-04-10T12:11:54;101230.34;;;13.97;82.88
35910;BME280;22004;49.120;-0.200;2023-04-10T12:14:21;101234.75;;;13.98;83.09
35910;BME280;22004;49.120;-0.200;2023-04-10T12:16:48;101228.53;;;13.98;83.80
35910;BME280;22004;49.120;-0.200;2023-04-10T12:19:14;101224.94;;;13.76;85.33
35910;BME280;22004;49.120;-0.200;2023-04-10T12:21:41;101221.53;;;14.03;85.78
35910;BME280;22004;49.120;-0.200;2023-04-10T12:24:10;101234.72;;;14.13;85.98
35910;BME280;22004;49.120;-0.200;2023-04-10T12:26:36;101223.97;;;13.98;83.68
35910;BME280;22004;49.120;-0.200;2023-04-10T12:29:02;101218.47;;;13.91;83.19
35910;BME280;22004;49.120;-0.200;2023-04-10T12:33:52;101231.59;;;14.16;84.04
35910;BME280;22004;49.120;-0.200;2023-04-10T12:36:23;101228.00;;;14.09;84.56
35910;BME280;22004;49.120;-0.200;2023-04-10T12:38:48;101231.88;;;14.21;85.64
35910;BME280;22004;49.120;-0.200;2023-04-10T12:41:20;101232.59;;;14.08;85.74
35910;BME280;22004;49.120;-0.200;2023-04-10T12:43:46;101229.34;;;13.98;86.00
35910;BME280;22004;49.120;-0.200;2023-04-10T12:46:23;101236.78;;;13.96;86.17
35910;BME280;22004;49.120;-0.200;2023-04-10T12:48:48;101253.44;;;13.63;85.76
35910;BME280;22004;49.120;-0.200;2023-04-10T12:51:13;101268.81;;;13.48;81.40
35910;BME280;22004;49.120;-0.200;2023-04-10T12:53:43;101275.34;;;13.01;79.34
35910;BME280;22004;49.120;-0.200;2023-04-10T12:56:09;101274.19;;;12.81;79.64
35910;BME280;22004;49.120;-0.200;2023-04-10T12:58:36;101277.91;;;12.80;79.13
35910;BME280;22004;49.120;-0.200;2023-04-10T13:01:06;101274.91;;;12.75;79.77
35910;BME280;22004;49.120;-0.200;2023-04-10T13:03:35;101276.59;;;12.76;81.38
35910;BME280;22004;49.120;-0.200;2023-04-10T13:06:01;101271.31;;;12.97;77.93
35910;BME280;22004;49.120;-0.200;2023-04-10T13:08:27;101285.19;;;12.94;78.53
35910;BME280;22004;49.120;-0.200;2023-04-10T13:10:56;101284.47;;;12.77;78.82
35910;BME280;22004;49.120;-0.200;2023-04-10T13:13:26;101284.09;;;13.03;76.99
35910;BME280;22004;49.120;-0.200;2023-04-10T13:15:52;101286.31;;;13.14;76.80
35910;BME280;22004;49.120;-0.200;2023-04-10T13:18:17;101288.16;;;12.99;78.74
35910;BME280;22004;49.120;-0.200;2023-04-10T13:20:43;101291.72;;;13.14;78.08
35910;BME280;22004;49.120;-0.200;2023-04-10T13:23:08;101295.50;;;13.05;78.47